sensor_id;sensor_type;location;lat;lon;timestamp;P1;durP1;ratioP1;P2;durP2;ratioP2
8297;SDS011;4187;42.778;23.242;2023-04-03T00:01:45;4.80;;;2.70;;
8297;SDS011;4187;42.778;23.242;2023-04-03T00:04:12;4.30;;;3.10;;
8297;SDS011;4187;42.778;23.242;2023-04-03T00:06:39;4.63;;;3.70;;
8297;SDS011;4187;42.778;23.242;2023-04-03T00:09:06;3.93;;;3.47;;
8297;SDS011;4187;42.778;23.242;2023-04-03T00:11:34;5.20;;;3.10;;
8297;SDS011;4187;42.778;23.242;2023-04-03T00:14:01;4.93;;;3.53;;
8297;SDS011;4187;42.778;23.242;2023-04-03T00:16:28;18.80;;;10.37;;
8297;SDS011;4187;42.778;23.242;2023-04-03T00:18:55;9.47;;;6.70;;
8297;SDS011;4187;42.778;23.242;2023-04-03T00:21:22;12.13;;;7.97;;
8297;SDS011;4187;42.778;23.242;2023-04-03T00:23:48;14.90;;;11.77;;
8297;SDS011;4187;42.778;23.242;2023-04-03T00:26:16;13.67;;;9.13;;
8297;SDS011;4187;42.778;23.242;2023-04-03T00:28:44;10.30;;;7.53;;
8297;SDS011;4187;42.778;23.242;2023-04-03T00:31:11;6.33;;;5.50;;
8297;SDS011;4187;42.778;23.242;2023-04-03T00:33:40;7.43;;;5.80;;
8297;SDS011;4187;42.778;23.242;2023-04-03T00:36:08;7.80;;;6.10;;
8297;SDS011;4187;42.778;23.242;2023-04-03T00:38:36;6.17;;;4.57;;
8297;SDS011;4187;42.778;23.242;2023-04-03T00:41:03;10.27;;;6.53;;
8297;SDS011;4187;42.778;23.242;2023-04-03T00:43:30;12.43;;;9.97;;
8297;SDS011;4187;42.778;23.242;2023-04-03T00:45:59;12.50;;;11.20;;
8297;SDS011;4187;42.778;23.242;2023-04-03T00:48:28;9.53;;;7.20;;
8297;SDS011;4187;42.778;23.242;2023-04-03T00:50:57;13.20;;;8.63;;
8297;SDS011;4187;42.778;23.242;2023-04-03T00:53:26;12.40;;;8.77;;
8297;SDS011;4187;42.778;23.242;2023-04-03T00:55:57;10.87;;;7.00;;
8297;SDS011;4187;42.778;23.242;2023-04-03T00:58:26;7.17;;;5.17;;
8297;SDS011;4187;42.778;23.242;2023-04-03T01:01:00;6.03;;;3.97;;
8297;SDS011;4187;42.778;23.242;2023-04-03T01:03:31;4.33;;;3.80;;
8297;SDS011;4187;42.778;23.242;2023-04-03T01:05:58;5.43;;;3.67;;
8297;SDS011;4187;42.778;23.242;2023-04-03T01:08:25;9.07;;;6.80;;
8297;SDS011;4187;42.778;23.242;2023-04-03T01:10:52;4.00;;;2.93;;
8297;SDS011;4187;42.778;23.242;2023-04-03T01:13:21;5.17;;;2.97;;
8297;SDS011;4187;42.778;23.242;2023-04-03T01:15:52;4.87;;;2.70;;
8297;SDS011;4187;42.778;23.242;2023-04-03T01:18:20;4.20;;;3.40;;
8297;SDS011;4187;42.778;23.242;2023-04-03T01:20:57;5.87;;;3.50;;
8297;SDS011;4187;42.778;23.242;2023-04-03T01:23:48;5.20;;;3.10;;
8297;SDS011;4187;42.778;23.242;2023-04-03T01:26:34;3.40;;;2.20;;
8297;SDS011;4187;42.778;23.242;2023-04-03T01:29:01;2.93;;;2.47;;
8297;SDS011;4187;42.778;23.242;2023-04-03T01:31:30;4.27;;;3.47;;
8297;SDS011;4187;42.778;23.242;2023-04-03T01:34:02;4.10;;;2.80;;
8297;SDS011;4187;42.778;23.242;2023-04-03T01:36:30;3.20;;;2.90;;
8297;SDS011;4187;42.778;23.242;2023-04-03T01:38:57;4.53;;;4.13;;
8297;SDS011;4187;42.778;23.242;2023-04-03T01:41:25;10.33;;;3.53;;
8297;SDS011;4187;42.778;23.242;2023-04-03T01:43:52;26.63;;;12.67;;
8297;SDS011;4187;42.778;23.242;2023-04-03T01:46:19;40.60;;;19.27;;
8297;SDS011;4187;42.778;23.242;2023-04-03T01:48:47;6.50;;;4.13;;
8297;SDS011;4187;42.778;23.242;2023-04-03T01:51:16;7.43;;;4.60;;
8297;SDS011;4187;42.778;23.242;2023-04-03T01:53:43;7.70;;;6.17;;
8297;SDS011;4187;42.778;23.242;2023-04-03T01:56:09;4.57;;;3.37;;
8297;SDS011;4187;42.778;23.242;2023-04-03T01:58:36;2.90;;;2.60;;
8297;SDS011;4187;42.778;23.242;2023-04-03T02:01:03;2.40;;;2.20;;
8297;SDS011;4187;42.778;23.242;2023-04-03T02:03:31;2.57;;;2.33;;
8297;SDS011;4187;42.778;23.242;2023-04-03T02:05:58;2.50;;;2.30;;
8297;SDS011;4187;42.778;23.242;2023-04-03T02:08:26;2.83;;;2.20;;
8297;SDS011;4187;42.778;23.242;2023-04-03T02:10:53;11.67;;;8.90;;
8297;SDS011;4187;42.778;23.242;2023-04-03T02:13:20;5.47;;;4.00;;
8297;SDS011;4187;42.778;23.242;2023-04-03T02:15:47;2.90;;;2.47;;
8297;SDS011;4187;42.778;23.242;2023-04-03T02:18:14;2.30;;;2.07;;
8297;SDS011;4187;42.778;23.242;2023-04-03T02:20:41;7.13;;;5.70;;
8297;SDS011;4187;42.778;23.242;2023-04-03T02:23:08;2.57;;;2.37;;
8297;SDS011;4187;42.778;23.242;2023-04-03T02:25:37;7.13;;;5.47;;
8297;SDS011;4187;42.778;23.242;2023-04-03T02:28:04;8.90;;;6.53;;
8297;SDS011;4187;42.778;23.242;2023-04-03T02:30:31;6.33;;;4.27;;
8297;SDS011;4187;42.778;23.242;2023-04-03T02:32:57;5.23;;;3.00;;
8297;SDS011;4187;42.778;23.242;2023-04-03T02:35:25;2.27;;;1.90;;
8297;SDS011;4187;42.778;23.242;2023-04-03T02:37:51;4.80;;;3.83;;
8297;SDS011;4187;42.778;23.242;2023-04-03T02:40:18;2.90;;;2.30;;
8297;SDS011;4187;42.778;23.242;2023-04-03T02:42:47;6.30;;;3.83;;
8297;SDS011;4187;42.778;23.242;2023-04-03T02:45:14;9.70;;;7.30;;
8297;SDS011;4187;42.778;23.242;2023-04-03T02:47:41;12.23;;;6.90;;
8297;SDS011;4187;42.778;23.242;2023-04-03T02:50:08;12.30;;;7.23;;
8297;SDS011;4187;42.778;23.242;2023-04-03T02:52:35;12.23;;;8.53;;
8297;SDS011;4187;42.778;23.242;2023-04-03T02:55:02;15.37;;;9.77;;
8297;SDS011;4187;42.778;23.242;2023-04-03T02:57:29;14.63;;;8.63;;
8297;SDS011;4187;42.778;23.242;2023-04-03T02:59:57;7.63;;;4.67;;
8297;SDS011;4187;42.778;23.242;2023-04-03T03:02:24;6.03;;;3.70;;
8297;SDS011;4187;42.778;23.242;2023-04-03T03:04:51;4.30;;;3.37;;
8297;SDS011;4187;42.778;23.242;2023-04-03T03:07:17;2.37;;;2.13;;
8297;SDS011;4187;42.778;23.242;2023-04-03T03:09:44;6.43;;;2.77;;
8297;SDS011;4187;42.778;23.242;2023-04-03T03:12:11;15.37;;;10.37;;
8297;SDS011;4187;42.778;23.242;2023-04-03T03:14:38;9.70;;;6.67;;
8297;SDS011;4187;42.778;23.242;2023-04-03T03:17:07;11.17;;;7.90;;
8297;SDS011;4187;42.778;23.242;2023-04-03T03:19:33;9.70;;;6.73;;
8297;SDS011;4187;42.778;23.242;2023-04-03T03:22:00;6.37;;;4.90;;
8297;SDS011;4187;42.778;23.242;2023-04-03T03:24:27;9.20;;;7.90;;
8297;SDS011;4187;42.778;23.242;2023-04-03T03:26:54;8.33;;;7.13;;
8297;SDS011;4187;42.778;23.242;2023-04-03T03:29:21;11.43;;;7.53;;
8297;SDS011;4187;42.778;23.242;2023-04-03T03:31:48;12.07;;;8.70;;
8297;SDS011;4187;42.778;23.242;2023-04-03T03:34:16;12.57;;;7.87;;
8297;SDS011;4187;42.778;23.242;2023-04-03T03:36:43;10.50;;;6.97;;
8297;SDS011;4187;42.778;23.242;2023-04-03T03:39:10;14.80;;;7.03;;
8297;SDS011;4187;42.778;23.242;2023-04-03T03:41:37;8.13;;;5.97;;
8297;SDS011;4187;42.778;23.242;2023-04-03T03:44:04;10.57;;;5.83;;
8297;SDS011;4187;42.778;23.242;2023-04-03T03:46:31;14.60;;;9.40;;
8297;SDS011;4187;42.778;23.242;2023-04-03T03:48:57;13.77;;;10.20;;
8297;SDS011;4187;42.778;23.242;2023-04-03T03:51:26;17.23;;;11.53;;
8297;SDS011;4187;42.778;23.242;2023-04-03T03:53:53;16.70;;;10.23;;
8297;SDS011;4187;42.778;23.242;2023-04-03T03:56:19;7.57;;;5.23;;
8297;SDS011;4187;42.778;23.242;2023-04-03T03:58:46;6.70;;;4.60;;
8297;SDS011;4187;42.778;23.242;2023-04-03T04:01:14;8.23;;;6.30;;
8297;SDS011;4187;42.778;23.242;2023-04-03T04:03:42;20.00;;;10.97;;
8297;SDS011;4187;42.778;23.242;2023-04-03T04:06:09;16.10;;;9.53;;
8297;SDS011;4187;42.778;23.242;2023-04-03T04:08:37;18.60;;;11.43;;
8297;SDS011;4187;42.778;23.242;2023-04-03T04:11:04;14.27;;;9.00;;
8297;SDS011;4187;42.778;23.242;2023-04-03T04:13:31;10.43;;;6.13;;
8297;SDS011;4187;42.778;23.242;2023-04-03T04:15:58;11.23;;;6.73;;
8297;SDS011;4187;42.778;23.242;2023-04-03T04:18:24;6.43;;;5.23;;
8297;SDS011;4187;42.778;23.242;2023-04-03T04:20:52;8.60;;;5.70;;
8297;SDS011;4187;42.778;23.242;2023-04-03T04:23:18;9.80;;;5.77;;
8297;SDS011;4187;42.778;23.242;2023-04-03T04:25:47;8.33;;;6.27;;
8297;SDS011;4187;42.778;23.242;2023-04-03T04:28:14;6.73;;;5.50;;
8297;SDS011;4187;42.778;23.242;2023-04-03T04:30:41;9.77;;;6.17;;
8297;SDS011;4187;42.778;23.242;2023-04-03T04:33:08;11.73;;;7.60;;
8297;SDS011;4187;42.778;23.242;2023-04-03T04:35:35;8.77;;;7.57;;
8297;SDS011;4187;42.778;23.242;2023-04-03T04:38:02;9.20;;;7.47;;
8297;SDS011;4187;42.778;23.242;2023-04-03T04:40:29;13.50;;;9.43;;
8297;SDS011;4187;42.778;23.242;2023-04-03T04:42:58;12.03;;;8.50;;
8297;SDS011;4187;42.778;23.242;2023-04-03T04:45:24;7.13;;;4.77;;
8297;SDS011;4187;42.778;23.242;2023-04-03T04:47:51;5.87;;;4.10;;
8297;SDS011;4187;42.778;23.242;2023-04-03T04:50:20;5.27;;;3.37;;
8297;SDS011;4187;42.778;23.242;2023-04-03T04:52:47;5.03;;;3.80;;
8297;SDS011;4187;42.778;23.242;2023-04-03T04:55:14;5.80;;;4.20;;
8297;SDS011;4187;42.778;23.242;2023-04-03T04:57:41;5.33;;;3.73;;
8297;SDS011;4187;42.778;23.242;2023-04-03T05:00:10;5.87;;;4.23;;
8297;SDS011;4187;42.778;23.242;2023-04-03T05:02:38;4.30;;;3.70;;
8297;SDS011;4187;42.778;23.242;2023-04-03T05:05:05;23.47;;;13.77;;
8297;SDS011;4187;42.778;23.242;2023-04-03T05:07:33;9.73;;;6.67;;
8297;SDS011;4187;42.778;23.242;2023-04-03T05:10:00;10.50;;;8.13;;
8297;SDS011;4187;42.778;23.242;2023-04-03T05:12:28;8.27;;;6.17;;
8297;SDS011;4187;42.778;23.242;2023-04-03T05:14:55;6.50;;;5.10;;
8297;SDS011;4187;42.778;23.242;2023-04-03T05:17:23;5.93;;;5.17;;
8297;SDS011;4187;42.778;23.242;2023-04-03T05:19:50;6.70;;;5.80;;
8297;SDS011;4187;42.778;23.242;2023-04-03T05:22:17;6.60;;;5.17;;
8297;SDS011;4187;42.778;23.242;2023-04-03T05:24:44;5.87;;;5.10;;
8297;SDS011;4187;42.778;23.242;2023-04-03T05:27:11;6.57;;;5.17;;
8297;SDS011;4187;42.778;23.242;2023-04-03T05:29:37;5.90;;;5.40;;
8297;SDS011;4187;42.778;23.242;2023-04-03T05:32:04;6.70;;;5.60;;
8297;SDS011;4187;42.778;23.242;2023-04-03T05:34:33;10.30;;;5.20;;
8297;SDS011;4187;42.778;23.242;2023-04-03T05:37:00;6.40;;;5.60;;
8297;SDS011;4187;42.778;23.242;2023-04-03T05:39:28;8.17;;;5.97;;
8297;SDS011;4187;42.778;23.242;2023-04-03T05:41:56;7.20;;;6.40;;
8297;SDS011;4187;42.778;23.242;2023-04-03T05:44:23;7.60;;;5.93;;
8297;SDS011;4187;42.778;23.242;2023-04-03T05:46:50;6.63;;;5.93;;
8297;SDS011;4187;42.778;23.242;2023-04-03T05:49:17;11.17;;;7.20;;
8297;SDS011;4187;42.778;23.242;2023-04-03T05:51:45;10.17;;;7.73;;
8297;SDS011;4187;42.778;23.242;2023-04-03T05:54:13;8.23;;;7.13;;
8297;SDS011;4187;42.778;23.242;2023-04-03T05:56:44;10.47;;;8.20;;
8297;SDS011;4187;42.778;23.242;2023-04-03T05:59:11;15.50;;;10.90;;
8297;SDS011;4187;42.778;23.242;2023-04-03T06:01:38;14.00;;;12.50;;
8297;SDS011;4187;42.778;23.242;2023-04-03T06:04:08;20.43;;;17.50;;
8297;SDS011;4187;42.778;23.242;2023-04-03T06:06:46;22.17;;;18.37;;
8297;SDS011;4187;42.778;23.242;2023-04-03T06:09:15;20.93;;;16.37;;
8297;SDS011;4187;42.778;23.242;2023-04-03T06:11:42;19.27;;;12.10;;
8297;SDS011;4187;42.778;23.242;2023-04-03T06:14:09;17.47;;;13.80;;
8297;SDS011;4187;42.778;23.242;2023-04-03T06:16:36;21.40;;;14.63;;
8297;SDS011;4187;42.778;23.242;2023-04-03T06:19:04;21.03;;;14.40;;
8297;SDS011;4187;42.778;23.242;2023-04-03T06:21:32;21.77;;;16.67;;
8297;SDS011;4187;42.778;23.242;2023-04-03T06:24:01;29.23;;;20.43;;
8297;SDS011;4187;42.778;23.242;2023-04-03T06:26:27;30.63;;;19.40;;
8297;SDS011;4187;42.778;23.242;2023-04-03T06:28:54;26.03;;;18.97;;
8297;SDS011;4187;42.778;23.242;2023-04-03T06:31:21;25.03;;;18.13;;
8297;SDS011;4187;42.778;23.242;2023-04-03T06:33:48;22.80;;;15.17;;
8297;SDS011;4187;42.778;23.242;2023-04-03T06:36:15;15.50;;;12.50;;
8297;SDS011;4187;42.778;23.242;2023-04-03T06:38:44;16.37;;;13.27;;
8297;SDS011;4187;42.778;23.242;2023-04-03T06:41:14;15.90;;;12.17;;
8297;SDS011;4187;42.778;23.242;2023-04-03T06:43:42;14.17;;;11.37;;
8297;SDS011;4187;42.778;23.242;2023-04-03T06:46:12;18.40;;;11.70;;
8297;SDS011;4187;42.778;23.242;2023-04-03T06:48:40;12.53;;;9.60;;
8297;SDS011;4187;42.778;23.242;2023-04-03T06:51:17;13.10;;;9.13;;
8297;SDS011;4187;42.778;23.242;2023-04-03T06:53:46;14.47;;;8.60;;
8297;SDS011;4187;42.778;23.242;2023-04-03T06:56:14;9.60;;;7.53;;
8297;SDS011;4187;42.778;23.242;2023-04-03T06:58:41;15.47;;;7.17;;
8297;SDS011;4187;42.778;23.242;2023-04-03T07:01:09;10.53;;;6.70;;
8297;SDS011;4187;42.778;23.242;2023-04-03T07:03:37;12.50;;;7.50;;
8297;SDS011;4187;42.778;23.242;2023-04-03T07:06:04;10.07;;;7.37;;
8297;SDS011;4187;42.778;23.242;2023-04-03T07:08:32;11.93;;;7.73;;
8297;SDS011;4187;42.778;23.242;2023-04-03T07:10:59;10.60;;;8.70;;
8297;SDS011;4187;42.778;23.242;2023-04-03T07:13:28;11.17;;;8.43;;
8297;SDS011;4187;42.778;23.242;2023-04-03T07:15:55;12.07;;;9.30;;
8297;SDS011;4187;42.778;23.242;2023-04-03T07:18:22;9.33;;;7.17;;
8297;SDS011;4187;42.778;23.242;2023-04-03T07:20:49;8.63;;;7.20;;
8297;SDS011;4187;42.778;23.242;2023-04-03T07:23:16;7.67;;;6.80;;
8297;SDS011;4187;42.778;23.242;2023-04-03T07:25:44;8.30;;;6.80;;
8297;SDS011;4187;42.778;23.242;2023-04-03T07:28:11;7.93;;;6.73;;
8297;SDS011;4187;42.778;23.242;2023-04-03T07:30:46;8.67;;;7.40;;
8297;SDS011;4187;42.778;23.242;2023-04-03T07:33:17;12.57;;;7.57;;
8297;SDS011;4187;42.778;23.242;2023-04-03T07:35:46;9.70;;;7.90;;
8297;SDS011;4187;42.778;23.242;2023-04-03T07:38:12;7.77;;;6.47;;
8297;SDS011;4187;42.778;23.242;2023-04-03T07:40:40;8.10;;;6.57;;
8297;SDS011;4187;42.778;23.242;2023-04-03T07:43:11;8.93;;;7.33;;
8297;SDS011;4187;42.778;23.242;2023-04-03T07:45:38;8.50;;;6.13;;
8297;SDS011;4187;42.778;23.242;2023-04-03T07:48:06;7.00;;;6.03;;
8297;SDS011;4187;42.778;23.242;2023-04-03T07:50:33;9.13;;;5.43;;
8297;SDS011;4187;42.778;23.242;2023-04-03T07:53:01;8.55;;;5.72;;
8297;SDS011;4187;42.778;23.242;2023-04-03T07:55:28;6.82;;;4.55;;
8297;SDS011;4187;42.778;23.242;2023-04-03T07:57:55;7.65;;;4.88;;
8297;SDS011;4187;42.778;23.242;2023-04-03T08:00:21;7.00;;;4.45;;
8297;SDS011;4187;42.778;23.242;2023-04-03T08:02:49;5.53;;;4.70;;
8297;SDS011;4187;42.778;23.242;2023-04-03T08:05:19;6.70;;;6.00;;
8297;SDS011;4187;42.778;23.242;2023-04-03T08:07:47;7.22;;;5.80;;
8297;SDS011;4187;42.778;23.242;2023-04-03T08:10:14;6.72;;;5.80;;
8297;SDS011;4187;42.778;23.242;2023-04-03T08:12:41;7.75;;;6.13;;
8297;SDS011;4187;42.778;23.242;2023-04-03T08:15:08;6.38;;;5.78;;
8297;SDS011;4187;42.778;23.242;2023-04-03T08:17:36;5.80;;;5.30;;
8297;SDS011;4187;42.778;23.242;2023-04-03T08:20:04;6.97;;;4.65;;
8297;SDS011;4187;42.778;23.242;2023-04-03T08:22:33;6.40;;;4.93;;
8297;SDS011;4187;42.778;23.242;2023-04-03T08:25:00;4.97;;;4.15;;
8297;SDS011;4187;42.778;23.242;2023-04-03T08:27:28;5.72;;;4.28;;
8297;SDS011;4187;42.778;23.242;2023-04-03T08:29:55;5.85;;;4.55;;
8297;SDS011;4187;42.778;23.242;2023-04-03T08:32:22;4.22;;;3.45;;
8297;SDS011;4187;42.778;23.242;2023-04-03T08:34:49;4.95;;;4.38;;
8297;SDS011;4187;42.778;23.242;2023-04-03T08:37:16;5.65;;;4.80;;
8297;SDS011;4187;42.778;23.242;2023-04-03T08:39:44;4.97;;;4.32;;
8297;SDS011;4187;42.778;23.242;2023-04-03T08:42:14;12.57;;;5.72;;
8297;SDS011;4187;42.778;23.242;2023-04-03T08:44:46;6.43;;;5.50;;
8297;SDS011;4187;42.778;23.242;2023-04-03T08:47:20;8.27;;;4.93;;
8297;SDS011;4187;42.778;23.242;2023-04-03T08:49:51;7.70;;;5.82;;
8297;SDS011;4187;42.778;23.242;2023-04-03T08:52:23;10.13;;;6.30;;
8297;SDS011;4187;42.778;23.242;2023-04-03T08:55:00;8.80;;;7.50;;
8297;SDS011;4187;42.778;23.242;2023-04-03T08:57:29;8.23;;;6.88;;
8297;SDS011;4187;42.778;23.242;2023-04-03T09:00:00;8.20;;;6.13;;
8297;SDS011;4187;42.778;23.242;2023-04-03T09:02:31;8.90;;;6.45;;
8297;SDS011;4187;42.778;23.242;2023-04-03T09:05:01;12.23;;;5.80;;
8297;SDS011;4187;42.778;23.242;2023-04-03T09:07:33;11.18;;;7.28;;
8297;SDS011;4187;42.778;23.242;2023-04-03T09:10:07;8.38;;;6.57;;
8297;SDS011;4187;42.778;23.242;2023-04-03T09:12:37;8.07;;;5.82;;
8297;SDS011;4187;42.778;23.242;2023-04-03T09:15:10;7.05;;;5.78;;
8297;SDS011;4187;42.778;23.242;2023-04-03T09:17:46;6.78;;;5.38;;
8297;SDS011;4187;42.778;23.242;2023-04-03T09:20:24;6.07;;;5.20;;
8297;SDS011;4187;42.778;23.242;2023-04-03T09:23:02;6.30;;;4.68;;
8297;SDS011;4187;42.778;23.242;2023-04-03T09:25:40;7.10;;;5.90;;
8297;SDS011;4187;42.778;23.242;2023-04-03T09:28:09;8.43;;;5.80;;
8297;SDS011;4187;42.778;23.242;2023-04-03T09:30:35;8.70;;;7.00;;
8297;SDS011;4187;42.778;23.242;2023-04-03T09:33:03;9.13;;;6.47;;
8297;SDS011;4187;42.778;23.242;2023-04-03T09:35:32;10.57;;;5.95;;
8297;SDS011;4187;42.778;23.242;2023-04-03T09:38:13;8.23;;;6.40;;
8297;SDS011;4187;42.778;23.242;2023-04-03T09:40:45;8.60;;;7.03;;
8297;SDS011;4187;42.778;23.242;2023-04-03T09:43:20;10.60;;;8.02;;
8297;SDS011;4187;42.778;23.242;2023-04-03T09:45:52;7.05;;;5.15;;
8297;SDS011;4187;42.778;23.242;2023-04-03T09:51:16;7.40;;;5.32;;
8297;SDS011;4187;42.778;23.242;2023-04-03T09:53:43;6.30;;;5.68;;
8297;SDS011;4187;42.778;23.242;2023-04-03T09:56:19;9.18;;;5.30;;
8297;SDS011;4187;42.778;23.242;2023-04-03T09:58:49;5.85;;;4.63;;
8297;SDS011;4187;42.778;23.242;2023-04-03T10:01:22;6.50;;;4.75;;
8297;SDS011;4187;42.778;23.242;2023-04-03T10:04:07;6.45;;;4.53;;
8297;SDS011;4187;42.778;23.242;2023-04-03T10:06:36;6.20;;;5.50;;
8297;SDS011;4187;42.778;23.242;2023-04-03T10:09:07;7.43;;;5.20;;
8297;SDS011;4187;42.778;23.242;2023-04-03T10:11:57;5.65;;;4.60;;
8297;SDS011;4187;42.778;23.242;2023-04-03T10:14:30;4.53;;;3.88;;
8297;SDS011;4187;42.778;23.242;2023-04-03T10:16:59;5.03;;;4.13;;
8297;SDS011;4187;42.778;23.242;2023-04-03T10:19:37;6.35;;;4.57;;
8297;SDS011;4187;42.778;23.242;2023-04-03T10:22:12;7.25;;;4.25;;
8297;SDS011;4187;42.778;23.242;2023-04-03T10:24:48;6.30;;;4.25;;
8297;SDS011;4187;42.778;23.242;2023-04-03T10:27:22;9.13;;;4.10;;
8297;SDS011;4187;42.778;23.242;2023-04-03T10:29:59;6.10;;;4.22;;
8297;SDS011;4187;42.778;23.242;2023-04-03T10:32:40;4.32;;;3.92;;
8297;SDS011;4187;42.778;23.242;2023-04-03T10:35:16;6.93;;;4.60;;
8297;SDS011;4187;42.778;23.242;2023-04-03T10:37:55;6.13;;;3.97;;
8297;SDS011;4187;42.778;23.242;2023-04-03T10:40:29;7.57;;;4.93;;
8297;SDS011;4187;42.778;23.242;2023-04-03T10:43:06;7.15;;;5.97;;
8297;SDS011;4187;42.778;23.242;2023-04-03T10:45:48;6.95;;;6.25;;
8297;SDS011;4187;42.778;23.242;2023-04-03T10:48:23;6.88;;;6.03;;
8297;SDS011;4187;42.778;23.242;2023-04-03T10:51:07;11.13;;;6.10;;
8297;SDS011;4187;42.778;23.242;2023-04-03T10:53:44;8.48;;;5.10;;
8297;SDS011;4187;42.778;23.242;2023-04-03T10:56:19;7.15;;;5.28;;
8297;SDS011;4187;42.778;23.242;2023-04-03T10:58:54;6.55;;;4.90;;
8297;SDS011;4187;42.778;23.242;2023-04-03T11:01:26;7.88;;;4.80;;
8297;SDS011;4187;42.778;23.242;2023-04-03T11:03:58;6.45;;;4.50;;
8297;SDS011;4187;42.778;23.242;2023-04-03T11:06:30;5.45;;;4.43;;
8297;SDS011;4187;42.778;23.242;2023-04-03T11:09:03;5.47;;;4.25;;
8297;SDS011;4187;42.778;23.242;2023-04-03T11:11:34;10.63;;;4.63;;
8297;SDS011;4187;42.778;23.242;2023-04-03T11:14:08;4.72;;;3.63;;
8297;SDS011;4187;42.778;23.242;2023-04-03T11:16:42;7.03;;;5.00;;
8297;SDS011;4187;42.778;23.242;2023-04-03T11:19:14;7.20;;;3.83;;
8297;SDS011;4187;42.778;23.242;2023-04-03T11:21:50;4.75;;;3.67;;
8297;SDS011;4187;42.778;23.242;2023-04-03T11:24:22;5.00;;;4.25;;
8297;SDS011;4187;42.778;23.242;2023-04-03T11:26:51;4.70;;;3.47;;
8297;SDS011;4187;42.778;23.242;2023-04-03T11:29:22;4.63;;;3.55;;
8297;SDS011;4187;42.778;23.242;2023-04-03T11:32:01;8.13;;;4.03;;
8297;SDS011;4187;42.778;23.242;2023-04-03T11:34:37;8.18;;;4.75;;
8297;SDS011;4187;42.778;23.242;2023-04-03T11:37:11;6.13;;;4.22;;
8297;SDS011;4187;42.778;23.242;2023-04-03T11:39:51;5.78;;;4.68;;
8297;SDS011;4187;42.778;23.242;2023-04-03T11:42:25;6.72;;;4.78;;
8297;SDS011;4187;42.778;23.242;2023-04-03T11:45:16;7.97;;;4.70;;
8297;SDS011;4187;42.778;23.242;2023-04-03T11:47:54;4.30;;;3.35;;
8297;SDS011;4187;42.778;23.242;2023-04-03T11:50:30;6.32;;;4.38;;
8297;SDS011;4187;42.778;23.242;2023-04-03T11:56:01;8.30;;;5.57;;
8297;SDS011;4187;42.778;23.242;2023-04-03T11:58:30;6.05;;;5.43;;
8297;SDS011;4187;42.778;23.242;2023-04-03T12:01:01;6.35;;;5.55;;
8297;SDS011;4187;42.778;23.242;2023-04-03T12:12:37;5.10;;;4.55;;
8297;SDS011;4187;42.778;23.242;2023-04-03T12:15:37;7.93;;;5.10;;
8297;SDS011;4187;42.778;23.242;2023-04-03T12:21:10;4.82;;;4.13;;
8297;SDS011;4187;42.778;23.242;2023-04-03T12:26:28;3.90;;;3.50;;
8297;SDS011;4187;42.778;23.242;2023-04-03T12:29:01;4.28;;;3.88;;
8297;SDS011;4187;42.778;23.242;2023-04-03T12:31:38;3.75;;;3.40;;
8297;SDS011;4187;42.778;23.242;2023-04-03T12:34:17;4.05;;;3.55;;
8297;SDS011;4187;42.778;23.242;2023-04-03T12:36:59;7.03;;;3.22;;
8297;SDS011;4187;42.778;23.242;2023-04-03T12:39:35;3.63;;;3.20;;
8297;SDS011;4187;42.778;23.242;2023-04-03T12:42:16;4.38;;;3.80;;
8297;SDS011;4187;42.778;23.242;2023-04-03T12:44:54;5.72;;;3.50;;
8297;SDS011;4187;42.778;23.242;2023-04-03T12:47:28;5.13;;;4.40;;
8297;SDS011;4187;42.778;23.242;2023-04-03T12:49:59;5.28;;;4.25;;
8297;SDS011;4187;42.778;23.242;2023-04-03T12:52:30;5.13;;;4.30;;
8297;SDS011;4187;42.778;23.242;2023-04-03T12:55:03;5.43;;;4.93;;
8297;SDS011;4187;42.778;23.242;2023-04-03T12:57:40;7.45;;;4.80;;
8297;SDS011;4187;42.778;23.242;2023-04-03T13:00:20;4.85;;;4.35;;
8297;SDS011;4187;42.778;23.242;2023-04-03T13:02:53;4.65;;;4.25;;
8297;SDS011;4187;42.778;23.242;2023-04-03T13:05:22;4.93;;;4.53;;
8297;SDS011;4187;42.778;23.242;2023-04-03T13:07:52;6.00;;;4.05;;
8297;SDS011;4187;42.778;23.242;2023-04-03T13:10:23;6.47;;;4.38;;
8297;SDS011;4187;42.778;23.242;2023-04-03T13:12:50;5.32;;;4.45;;
8297;SDS011;4187;42.778;23.242;2023-04-03T13:15:22;6.50;;;5.75;;
8297;SDS011;4187;42.778;23.242;2023-04-03T13:17:51;8.20;;;5.53;;
8297;SDS011;4187;42.778;23.242;2023-04-03T13:20:20;11.00;;;6.03;;
8297;SDS011;4187;42.778;23.242;2023-04-03T13:22:52;10.18;;;6.20;;
8297;SDS011;4187;42.778;23.242;2023-04-03T13:25:23;8.60;;;6.32;;
8297;SDS011;4187;42.778;23.242;2023-04-03T13:27:53;7.23;;;5.73;;
8297;SDS011;4187;42.778;23.242;2023-04-03T13:30:23;12.60;;;9.63;;
8297;SDS011;4187;42.778;23.242;2023-04-03T13:32:55;7.40;;;6.43;;
8297;SDS011;4187;42.778;23.242;2023-04-03T13:35:29;7.83;;;6.67;;
8297;SDS011;4187;42.778;23.242;2023-04-03T13:38:00;6.70;;;6.00;;
8297;SDS011;4187;42.778;23.242;2023-04-03T13:40:29;7.53;;;5.80;;
8297;SDS011;4187;42.778;23.242;2023-04-03T13:43:00;8.43;;;6.10;;
8297;SDS011;4187;42.778;23.242;2023-04-03T13:45:30;5.77;;;3.17;;
8297;SDS011;4187;42.778;23.242;2023-04-03T13:48:08;3.70;;;3.17;;
8297;SDS011;4187;42.778;23.242;2023-04-03T13:50:56;5.43;;;3.97;;
8297;SDS011;4187;42.778;23.242;2023-04-03T13:53:25;5.23;;;3.90;;
8297;SDS011;4187;42.778;23.242;2023-04-03T13:55:55;3.13;;;2.83;;
8297;SDS011;4187;42.778;23.242;2023-04-03T13:58:26;4.07;;;2.80;;
8297;SDS011;4187;42.778;23.242;2023-04-03T14:00:55;14.88;;;11.05;;
8297;SDS011;4187;42.778;23.242;2023-04-03T14:03:28;15.75;;;11.38;;
8297;SDS011;4187;42.778;23.242;2023-04-03T14:05:58;8.25;;;7.45;;
8297;SDS011;4187;42.778;23.242;2023-04-03T14:08:26;8.27;;;7.57;;
8297;SDS011;4187;42.778;23.242;2023-04-03T14:10:54;5.77;;;5.27;;
8297;SDS011;4187;42.778;23.242;2023-04-03T14:13:21;6.20;;;4.67;;
8297;SDS011;4187;42.778;23.242;2023-04-03T14:15:48;7.47;;;4.93;;
8297;SDS011;4187;42.778;23.242;2023-04-03T14:18:17;3.40;;;3.10;;
8297;SDS011;4187;42.778;23.242;2023-04-03T14:20:45;6.00;;;5.40;;
8297;SDS011;4187;42.778;23.242;2023-04-03T14:23:15;31.53;;;21.00;;
8297;SDS011;4187;42.778;23.242;2023-04-03T14:25:43;17.27;;;13.63;;
8297;SDS011;4187;42.778;23.242;2023-04-03T14:28:15;15.27;;;10.97;;
8297;SDS011;4187;42.778;23.242;2023-04-03T14:30:44;6.30;;;5.50;;
8297;SDS011;4187;42.778;23.242;2023-04-03T14:33:13;6.93;;;5.43;;
8297;SDS011;4187;42.778;23.242;2023-04-03T14:35:41;10.30;;;9.03;;
8297;SDS011;4187;42.778;23.242;2023-04-03T14:38:12;14.53;;;10.90;;
8297;SDS011;4187;42.778;23.242;2023-04-03T14:40:50;11.60;;;9.27;;
8297;SDS011;4187;42.778;23.242;2023-04-03T14:43:18;10.37;;;9.07;;
8297;SDS011;4187;42.778;23.242;2023-04-03T14:45:45;16.03;;;13.00;;
8297;SDS011;4187;42.778;23.242;2023-04-03T14:48:15;17.20;;;15.40;;
8297;SDS011;4187;42.778;23.242;2023-04-03T14:50:44;17.03;;;14.77;;
8297;SDS011;4187;42.778;23.242;2023-04-03T14:53:12;12.27;;;10.73;;
8297;SDS011;4187;42.778;23.242;2023-04-03T14:55:42;8.10;;;7.30;;
8297;SDS011;4187;42.778;23.242;2023-04-03T14:58:12;8.33;;;7.20;;
8297;SDS011;4187;42.778;23.242;2023-04-03T15:00:42;7.60;;;5.93;;
8297;SDS011;4187;42.778;23.242;2023-04-03T15:03:12;9.23;;;8.33;;
8297;SDS011;4187;42.778;23.242;2023-04-03T15:05:41;8.40;;;7.60;;
8297;SDS011;4187;42.778;23.242;2023-04-03T15:08:13;9.43;;;8.40;;
8297;SDS011;4187;42.778;23.242;2023-04-03T15:10:47;10.13;;;7.40;;
8297;SDS011;4187;42.778;23.242;2023-04-03T15:13:14;8.73;;;7.83;;
8297;SDS011;4187;42.778;23.242;2023-04-03T15:15:41;8.97;;;6.77;;
8297;SDS011;4187;42.778;23.242;2023-04-03T15:18:10;7.30;;;6.47;;
8297;SDS011;4187;42.778;23.242;2023-04-03T15:20:42;7.50;;;5.97;;
8297;SDS011;4187;42.778;23.242;2023-04-03T15:23:09;6.67;;;6.03;;
8297;SDS011;4187;42.778;23.242;2023-04-03T15:25:37;8.13;;;7.30;;
8297;SDS011;4187;42.778;23.242;2023-04-03T15:28:06;6.80;;;6.20;;
8297;SDS011;4187;42.778;23.242;2023-04-03T15:30:41;15.90;;;13.00;;
8297;SDS011;4187;42.778;23.242;2023-04-03T15:33:08;16.27;;;14.57;;